sensor_id;sensor_type;location;lat;lon;timestamp;pressure;altitude;pressure_sealevel;temperature;humidity
66703;BME280;60933;46.398;-63.798;2023-12-20T00:00:11;101482.16;;;4.52;100.00
66703;BME280;60933;46.398;-63.798;2023-12-20T00:02:39;101497.53;;;4.54;100.00
66703;BME280;60933;46.398;-63.798;2023-12-20T00:05:07;101488.06;;;4.47;100.00
66703;BME280;60933;46.398;-63.798;2023-12-20T00:07:36;101506.88;;;4.52;100.00
66703;BME280;60933;46.398;-63.798;2023-12-20T00:10:04;101514.56;;;4.53;100.00
66703;BME280;60933;46.398;-63.798;2023-12-20T00:12:33;101523.06;;;4.52;100.00
66703;BME280;60933;46.398;-63.798;2023-12-20T00:15:01;101519.63;;;4.49;100.00
66703;BME280;60933;46.398;-63.798;2023-12-20T00:17:30;101506.81;;;4.44;100.00
66703;BME280;60933;46.398;-63.798;2023-12-20T00:19:58;101512.75;;;4.43;100.00
66703;BME280;60933;46.398;-63.798;2023-12-20T00:22:27;101517.88;;;4.43;100.00
66703;BME280;60933;46.398;-63.798;2023-12-20T00:24:55;101520.38;;;4.40;100.00
66703;BME280;60933;46.398;-63.798;2023-12-20T00:27:23;101516.91;;;4.38;100.00
66703;BME280;60933;46.398;-63.798;2023-12-20T00:29:52;101533.91;;;4.34;100.00
66703;BME280;60933;46.398;-63.798;2023-12-20T00:32:20;101537.28;;;4.32;100.00
66703;BME280;60933;46.398;-63.798;2023-12-20T00:34:48;101541.50;;;4.30;100.00
66703;BME280;60933;46.398;-63.798;2023-12-20T00:37:17;101540.66;;;4.27;100.00
66703;BME280;60933;46.398;-63.798;2023-12-20T00:39:45;101543.22;;;4.27;100.00
66703;BME280;60933;46.398;-63.798;2023-12-20T00:42:14;101557.72;;;4.30;100.00
66703;BME280;60933;46.398;-63.798;2023-12-20T00:44:42;101539.84;;;4.32;100.00
66703;BME280;60933;46.398;-63.798;2023-12-20T00:47:10;101538.19;;;4.34;100.00
66703;BME280;60933;46.398;-63.798;2023-12-20T00:49:39;101545.88;;;4.37;100.00
66703;BME280;60933;46.398;-63.798;2023-12-20T00:52:07;101552.72;;;4.38;100.00
66703;BME280;60933;46.398;-63.798;2023-12-20T00:54:35;101550.16;;;4.38;100.00
66703;BME280;60933;46.398;-63.798;2023-12-20T00:57:04;101543.28;;;4.32;100.00
66703;BME280;60933;46.398;-63.798;2023-12-20T00:59:32;101562.03;;;4.33;100.00
66703;BME280;60933;46.398;-63.798;2023-12-20T01:02:01;101561.94;;;4.26;100.00
66703;BME280;60933;46.398;-63.798;2023-12-20T01:04:30;101567.88;;;4.25;100.00
66703;BME280;60933;46.398;-63.798;2023-12-20T01:06:58;101580.56;;;4.19;100.00
66703;BME280;60933;46.398;-63.798;2023-12-20T01:09:27;101574.50;;;4.14;100.00
66703;BME280;60933;46.398;-63.798;2023-12-20T01:11:55;101573.50;;;4.03;100.00
66703;BME280;60933;46.398;-63.798;2023-12-20T01:14:23;101604.25;;;4.09;100.00
66703;BME280;60933;46.398;-63.798;2023-12-20T01:16:52;101607.72;;;4.11;100.00
66703;BME280;60933;46.398;-63.798;2023-12-20T01:19:20;101617.19;;;4.17;100.00
66703;BME280;60933;46.398;-63.798;2023-12-20T01:21:49;101629.97;;;4.18;100.00
66703;BME280;60933;46.398;-63.798;2023-12-20T01:24:18;101630.03;;;4.21;100.00
66703;BME280;60933;46.398;-63.798;2023-12-20T01:26:46;101644.53;;;4.24;100.00
66703;BME280;60933;46.398;-63.798;2023-12-20T01:29:17;101647.94;;;4.23;100.00
66703;BME280;60933;46.398;-63.798;2023-12-20T01:31:46;101651.31;;;4.22;100.00
66703;BME280;60933;46.398;-63.798;2023-12-20T01:34:14;101647.91;;;4.21;100.00
66703;BME280;60933;46.398;-63.798;2023-12-20T01:36:43;101656.34;;;4.17;100.00
66703;BME280;60933;46.398;-63.798;2023-12-20T01:39:11;101650.41;;;4.18;100.00
66703;BME280;60933;46.398;-63.798;2023-12-20T01:41:53;101658.06;;;4.17;100.00
66703;BME280;60933;46.398;-63.798;2023-12-20T01:44:22;101664.03;;;4.17;100.00
66703;BME280;60933;46.398;-63.798;2023-12-20T01:46:51;101679.28;;;4.12;100.00
66703;BME280;60933;46.398;-63.798;2023-12-20T01:49:19;101700.53;;;4.11;100.00
66703;BME280;60933;46.398;-63.798;2023-12-20T01:51:49;101707.38;;;4.11;100.00
66703;BME280;60933;46.398;-63.798;2023-12-20T01:54:19;101704.00;;;4.14;100.00
66703;BME280;60933;46.398;-63.798;2023-12-20T01:56:49;101701.31;;;4.06;100.00
66703;BME280;60933;46.398;-63.798;2023-12-20T01:59:19;101724.50;;;4.17;100.00
66703;BME280;60933;46.398;-63.798;2023-12-20T02:01:49;101725.44;;;4.22;100.00
66703;BME280;60933;46.398;-63.798;2023-12-20T02:04:17;101733.94;;;4.22;100.00
66703;BME280;60933;46.398;-63.798;2023-12-20T02:06:46;101733.09;;;4.20;100.00
66703;BME280;60933;46.398;-63.798;2023-12-20T02:09:15;101728.72;;;4.13;100.00
66703;BME280;60933;46.398;-63.798;2023-12-20T02:11:43;101743.25;;;4.19;100.00
66703;BME280;60933;46.398;-63.798;2023-12-20T02:14:12;101719.13;;;4.01;100.00
66703;BME280;60933;46.398;-63.798;2023-12-20T02:16:42;101752.63;;;4.17;100.00
66703;BME280;60933;46.398;-63.798;2023-12-20T02:19:15;101778.19;;;4.18;100.00
66703;BME280;60933;46.398;-63.798;2023-12-20T02:22:06;101756.88;;;4.18;100.00
66703;BME280;60933;46.398;-63.798;2023-12-20T02:24:34;101741.53;;;4.18;100.00
66703;BME280;60933;46.398;-63.798;2023-12-20T02:27:03;101747.53;;;4.18;100.00
66703;BME280;60933;46.398;-63.798;2023-12-20T02:29:34;101767.19;;;4.22;100.00
66703;BME280;60933;46.398;-63.798;2023-12-20T02:32:02;101752.75;;;4.24;100.00
66703;BME280;60933;46.398;-63.798;2023-12-20T02:34:31;101749.34;;;4.25;100.00
66703;BME280;60933;46.398;-63.798;2023-12-20T02:36:59;101752.81;;;4.27;100.00
66703;BME280;60933;46.398;-63.798;2023-12-20T02:39:27;101756.28;;;4.31;100.00
66703;BME280;60933;46.398;-63.798;2023-12-20T02:41:55;101764.75;;;4.28;100.00
66703;BME280;60933;46.398;-63.798;2023-12-20T02:44:23;101775.00;;;4.32;100.00
66703;BME280;60933;46.398;-63.798;2023-12-20T02:46:52;101780.13;;;4.32;100.00
66703;BME280;60933;46.398;-63.798;2023-12-20T02:49:20;101780.13;;;4.32;100.00
66703;BME280;60933;46.398;-63.798;2023-12-20T02:51:48;101787.81;;;4.33;100.00
66703;BME280;60933;46.398;-63.798;2023-12-20T02:54:17;101778.47;;;4.34;100.00
66703;BME280;60933;46.398;-63.798;2023-12-20T02:56:45;101790.34;;;4.32;100.00
66703;BME280;60933;46.398;-63.798;2023-12-20T02:59:13;101788.69;;;4.34;100.00
66703;BME280;60933;46.398;-63.798;2023-12-20T03:01:44;101775.91;;;4.34;100.00
66703;BME280;60933;46.398;-63.798;2023-12-20T03:04:12;101774.19;;;4.33;100.00
66703;BME280;60933;46.398;-63.798;2023-12-20T03:06:41;101781.88;;;4.34;100.00
66703;BME280;60933;46.398;-63.798;2023-12-20T03:09:09;101770.78;;;4.32;100.00
66703;BME280;60933;46.398;-63.798;2023-12-20T03:11:37;101775.94;;;4.35;100.00
66703;BME280;60933;46.398;-63.798;2023-12-20T03:14:05;101773.38;;;4.37;100.00
66703;BME280;60933;46.398;-63.798;2023-12-20T03:16:33;101772.53;;;4.35;100.00
66703;BME280;60933;46.398;-63.798;2023-12-20T03:19:03;101763.13;;;4.34;100.00
66703;BME280;60933;46.398;-63.798;2023-12-20T03:21:31;101769.97;;;4.35;100.00
66703;BME280;60933;46.398;-63.798;2023-12-20T03:23:59;101778.47;;;4.34;100.00
66703;BME280;60933;46.398;-63.798;2023-12-20T03:26:27;101777.56;;;4.30;100.00
66703;BME280;60933;46.398;-63.798;2023-12-20T03:28:55;101792.00;;;4.30;100.00
66703;BME280;60933;46.398;-63.798;2023-12-20T03:31:24;101790.25;;;4.25;100.00
66703;BME280;60933;46.398;-63.798;2023-12-20T03:33:52;101797.03;;;4.23;100.00
66703;BME280;60933;46.398;-63.798;2023-12-20T03:36:21;101796.97;;;4.20;100.00
66703;BME280;60933;46.398;-63.798;2023-12-20T03:38:49;101804.56;;;4.17;100.00
66703;BME280;60933;46.398;-63.798;2023-12-20T03:41:17;101800.28;;;4.15;100.00
66703;BME280;60933;46.398;-63.798;2023-12-20T03:43:46;101811.31;;;4.14;100.00
66703;BME280;60933;46.398;-63.798;2023-12-20T03:46:14;101810.47;;;4.13;100.00
66703;BME280;60933;46.398;-63.798;2023-12-20T03:48:42;101805.28;;;4.08;100.00
66703;BME280;60933;46.398;-63.798;2023-12-20T03:51:10;101803.56;;;4.09;100.00
66703;BME280;60933;46.398;-63.798;2023-12-20T03:53:38;101814.56;;;4.05;100.00
66703;BME280;60933;46.398;-63.798;2023-12-20T03:56:08;101822.16;;;4.02;100.00
66703;BME280;60933;46.398;-63.798;2023-12-20T03:58:36;101812.78;;;4.01;100.00
66703;BME280;60933;46.398;-63.798;2023-12-20T04:01:09;101807.56;;;3.94;100.00
66703;BME280;60933;46.398;-63.798;2023-12-20T04:03:39;101818.59;;;3.93;100.00
66703;BME280;60933;46.398;-63.798;2023-12-20T04:06:08;101798.06;;;3.89;100.00
66703;BME280;60933;46.398;-63.798;2023-12-20T04:08:36;101790.38;;;3.87;100.00
66703;BME280;60933;46.398;-63.798;2023-12-20T04:11:04;101783.53;;;3.85;100.00
66703;BME280;60933;46.398;-63.798;2023-12-20T04:13:32;101794.59;;;3.85;100.00
66703;BME280;60933;46.398;-63.798;2023-12-20T04:16:00;101809.91;;;3.85;100.00
66703;BME280;60933;46.398;-63.798;2023-12-20T04:18:28;101818.38;;;3.81;100.00
66703;BME280;60933;46.398;-63.798;2023-12-20T04:20:56;101826.06;;;3.84;100.00
66703;BME280;60933;46.398;-63.798;2023-12-20T04:23:25;101812.53;;;3.87;100.00
66703;BME280;60933;46.398;-63.798;2023-12-20T04:25:54;101823.56;;;3.86;100.00
66703;BME280;60933;46.398;-63.798;2023-12-20T04:28:22;101817.56;;;3.85;100.00
66703;BME280;60933;46.398;-63.798;2023-12-20T04:30:50;101817.63;;;3.87;100.00
66703;BME280;60933;46.398;-63.798;2023-12-20T04:33:18;101833.81;;;3.87;100.00
66703;BME280;60933;46.398;-63.798;2023-12-20T04:35:46;101827.00;;;3.88;100.00
66703;BME280;60933;46.398;-63.798;2023-12-20T04:38:14;101828.59;;;3.83;100.00
66703;BME280;60933;46.398;-63.798;2023-12-20T04:40:42;101819.31;;;3.86;100.00
66703;BME280;60933;46.398;-63.798;2023-12-20T04:43:11;101824.41;;;3.86;100.00
66703;BME280;60933;46.398;-63.798;2023-12-20T04:45:39;101824.41;;;3.86;100.00
66703;BME280;60933;46.398;-63.798;2023-12-20T04:48:07;101817.53;;;3.82;100.00
66703;BME280;60933;46.398;-63.798;2023-12-20T04:50:35;101826.88;;;3.82;100.00
66703;BME280;60933;46.398;-63.798;2023-12-20T04:53:03;101839.59;;;3.78;100.00
66703;BME280;60933;46.398;-63.798;2023-12-20T04:55:31;101844.72;;;3.80;100.00
66703;BME280;60933;46.398;-63.798;2023-12-20T04:58:00;101826.72;;;3.74;100.00
66703;BME280;60933;46.398;-63.798;2023-12-20T05:00:28;101836.16;;;3.76;100.00
66703;BME280;60933;46.398;-63.798;2023-12-20T05:02:56;101836.97;;;3.75;100.00
66703;BME280;60933;46.398;-63.798;2023-12-20T05:05:24;101825.94;;;3.78;100.00
66703;BME280;60933;46.398;-63.798;2023-12-20T05:07:52;101826.78;;;3.77;100.00
66703;BME280;60933;46.398;-63.798;2023-12-20T05:10:21;101834.44;;;3.77;100.00
66703;BME280;60933;46.398;-63.798;2023-12-20T05:12:49;101848.94;;;3.78;100.00
66703;BME280;60933;46.398;-63.798;2023-12-20T05:15:17;101829.34;;;3.77;100.00
66703;BME280;60933;46.398;-63.798;2023-12-20T05:17:45;101830.16;;;3.76;100.00
66703;BME280;60933;46.398;-63.798;2023-12-20T05:20:14;101846.34;;;3.76;100.00
66703;BME280;60933;46.398;-63.798;2023-12-20T05:22:42;101842.94;;;3.76;100.00
66703;BME280;60933;46.398;-63.798;2023-12-20T05:25:10;101860.84;;;3.77;100.00
66703;BME280;60933;46.398;-63.798;2023-12-20T05:27:39;101864.25;;;3.78;100.00
66703;BME280;60933;46.398;-63.798;2023-12-20T05:30:08;101847.22;;;3.77;100.00
66703;BME280;60933;46.398;-63.798;2023-12-20T05:32:36;101842.06;;;3.75;100.00
66703;BME280;60933;46.398;-63.798;2023-12-20T05:35:04;101865.91;;;3.76;100.00
66703;BME280;60933;46.398;-63.798;2023-12-20T05:37:32;101879.53;;;3.75;100.00
66703;BME280;60933;46.398;-63.798;2023-12-20T05:40:01;101888.88;;;3.74;100.00
66703;BME280;60933;46.398;-63.798;2023-12-20T05:42:29;101844.56;;;3.72;100.00
66703;BME280;60933;46.398;-63.798;2023-12-20T05:44:57;101881.25;;;3.76;100.00
66703;BME280;60933;46.398;-63.798;2023-12-20T05:47:25;101882.91;;;3.74;100.00
66703;BME280;60933;46.398;-63.798;2023-12-20T05:49:53;101884.66;;;3.75;100.00
66703;BME280;60933;46.398;-63.798;2023-12-20T05:52:22;101888.91;;;3.76;100.00
66703;BME280;60933;46.398;-63.798;2023-12-20T05:54:50;101888.06;;;3.75;100.00
66703;BME280;60933;46.398;-63.798;2023-12-20T05:57:18;101882.03;;;3.73;100.00
66703;BME280;60933;46.398;-63.798;2023-12-20T05:59:46;101887.19;;;3.75;100.00
66703;BME280;60933;46.398;-63.798;2023-12-20T06:02:14;101884.66;;;3.75;100.00
66703;BME280;60933;46.398;-63.798;2023-12-20T06:04:43;101875.13;;;3.68;100.00
66703;BME280;60933;46.398;-63.798;2023-12-20T06:07:15;101871.03;;;3.76;100.00
66703;BME280;60933;46.398;-63.798;2023-12-20T06:09:43;101868.56;;;3.80;100.00
66703;BME280;60933;46.398;-63.798;2023-12-20T06:12:11;101887.38;;;3.84;100.00
66703;BME280;60933;46.398;-63.798;2023-12-20T06:14:39;101885.63;;;3.82;100.00
66703;BME280;60933;46.398;-63.798;2023-12-20T06:17:08;101882.34;;;3.87;100.00
66703;BME280;60933;46.398;-63.798;2023-12-20T06:19:36;101889.16;;;3.87;100.00
66703;BME280;60933;46.398;-63.798;2023-12-20T06:22:04;101892.66;;;3.92;100.00
66703;BME280;60933;46.398;-63.798;2023-12-20T06:24:32;101895.22;;;3.92;100.00
66703;BME280;60933;46.398;-63.798;2023-12-20T06:27:01;101907.16;;;3.93;100.00
66703;BME280;60933;46.398;-63.798;2023-12-20T06:29:29;101913.94;;;3.92;100.00
66703;BME280;60933;46.398;-63.798;2023-12-20T06:31:58;101925.97;;;3.96;100.00
66703;BME280;60933;46.398;-63.798;2023-12-20T06:34:26;101939.56;;;3.95;100.00
66703;BME280;60933;46.398;-63.798;2023-12-20T06:36:55;101953.25;;;3.98;100.00
66703;BME280;60933;46.398;-63.798;2023-12-20T06:39:23;101942.88;;;3.91;100.00
66703;BME280;60933;46.398;-63.798;2023-12-20T06:41:51;101945.59;;;3.98;100.00
66703;BME280;60933;46.398;-63.798;2023-12-20T06:44:19;101938.78;;;4.00;100.00
66703;BME280;60933;46.398;-63.798;2023-12-20T06:46:47;101916.59;;;3.97;100.00
66703;BME280;60933;46.398;-63.798;2023-12-20T06:49:15;101914.97;;;3.99;100.00
66703;BME280;60933;46.398;-63.798;2023-12-20T06:51:44;101912.44;;;4.01;100.00
66703;BME280;60933;46.398;-63.798;2023-12-20T06:54:12;101924.28;;;3.99;100.00
66703;BME280;60933;46.398;-63.798;2023-12-20T06:56:40;101917.50;;;3.98;100.00
66703;BME280;60933;46.398;-63.798;2023-12-20T06:59:08;101920.88;;;3.96;100.00
66703;BME280;60933;46.398;-63.798;2023-12-20T07:01:36;101917.44;;;3.96;100.00
66703;BME280;60933;46.398;-63.798;2023-12-20T07:04:05;101917.41;;;3.94;100.00
66703;BME280;60933;46.398;-63.798;2023-12-20T07:06:33;101909.75;;;3.94;100.00
66703;BME280;60933;46.398;-63.798;2023-12-20T07:09:01;101906.25;;;3.91;100.00
66703;BME280;60933;46.398;-63.798;2023-12-20T07:11:30;101902.88;;;3.92;100.00
66703;BME280;60933;46.398;-63.798;2023-12-20T07:13:58;101898.63;;;3.92;100.00
66703;BME280;60933;46.398;-63.798;2023-12-20T07:16:26;101899.44;;;3.91;100.00
66703;BME280;60933;46.398;-63.798;2023-12-20T07:18:54;101901.13;;;3.89;100.00
66703;BME280;60933;46.398;-63.798;2023-12-20T07:21:22;101883.13;;;3.83;100.00
66703;BME280;60933;46.398;-63.798;2023-12-20T07:23:50;101908.84;;;3.92;100.00
66703;BME280;60933;46.398;-63.798;2023-12-20T07:26:18;101905.53;;;3.96;100.00
66703;BME280;60933;46.398;-63.798;2023-12-20T07:28:47;101896.88;;;3.91;100.00
66703;BME280;60933;46.398;-63.798;2023-12-20T07:31:18;101913.31;;;4.01;100.00
66703;BME280;60933;46.398;-63.798;2023-12-20T07:33:46;101903.94;;;4.03;100.00
66703;BME280;60933;46.398;-63.798;2023-12-20T07:36:15;101912.50;;;4.04;100.00
66703;BME280;60933;46.398;-63.798;2023-12-20T07:38:43;101909.13;;;4.05;100.00
66703;BME280;60933;46.398;-63.798;2023-12-20T07:41:11;101916.81;;;4.06;100.00
66703;BME280;60933;46.398;-63.798;2023-12-20T07:43:40;101920.19;;;4.05;100.00
66703;BME280;60933;46.398;-63.798;2023-12-20T07:46:11;101941.56;;;4.09;100.00
66703;BME280;60933;46.398;-63.798;2023-12-20T07:48:39;101931.34;;;4.09;100.00
66703;BME280;60933;46.398;-63.798;2023-12-20T07:51:12;101938.19;;;4.10;100.00
66703;BME280;60933;46.398;-63.798;2023-12-20T07:53:40;101937.28;;;4.08;100.00
66703;BME280;60933;46.398;-63.798;2023-12-20T07:56:18;101948.41;;;4.10;100.00
66703;BME280;60933;46.398;-63.798;2023-12-20T07:58:46;101943.28;;;4.10;100.00
66703;BME280;60933;46.398;-63.798;2023-12-20T08:01:19;101946.63;;;4.06;100.00
66703;BME280;60933;46.398;-63.798;2023-12-20T08:03:49;101931.34;;;4.09;100.00
66703;BME280;60933;46.398;-63.798;2023-12-20T08:06:18;101922.72;;;4.04;100.00
66703;BME280;60933;46.398;-63.798;2023-12-20T08:08:47;101933.84;;;4.06;100.00
66703;BME280;60933;46.398;-63.798;2023-12-20T08:11:27;101932.97;;;4.05;100.00
66703;BME280;60933;46.398;-63.798;2023-12-20T08:13:55;101907.97;;;3.90;100.00
66703;BME280;60933;46.398;-63.798;2023-12-20T08:16:23;101928.63;;;4.01;100.00
66703;BME280;60933;46.398;-63.798;2023-12-20T08:18:51;101925.16;;;3.98;100.00
66703;BME280;60933;46.398;-63.798;2023-12-20T08:21:20;101928.53;;;3.96;100.00
66703;BME280;60933;46.398;-63.798;2023-12-20T08:23:50;101924.25;;;3.95;100.00
66703;BME280;60933;46.398;-63.798;2023-12-20T08:26:20;101929.34;;;3.95;100.00
66703;BME280;60933;46.398;-63.798;2023-12-20T08:28:50;101926.63;;;3.88;100.00
66703;BME280;60933;46.398;-63.798;2023-12-20T08:31:19;101927.53;;;3.91;100.00
66703;BME280;60933;46.398;-63.798;2023-12-20T08:33:48;101944.59;;;3.91;100.00
66703;BME280;60933;46.398;-63.798;2023-12-20T08:36:16;101954.69;;;3.86;100.00
66703;BME280;60933;46.398;-63.798;2023-12-20T08:38:45;101964.06;;;3.86;100.00
66703;BME280;60933;46.398;-63.798;2023-12-20T08:41:13;101966.56;;;3.84;100.00
66703;BME280;60933;46.398;-63.798;2023-12-20T08:43:41;101955.34;;;3.77;100.00
66703;BME280;60933;46.398;-63.798;2023-12-20T08:46:09;101958.03;;;3.82;100.00
66703;BME280;60933;46.398;-63.798;2023-12-20T08:48:38;101978.47;;;3.82;100.00
66703;BME280;60933;46.398;-63.798;2023-12-20T08:51:06;101993.72;;;3.80;100.00
66703;BME280;60933;46.398;-63.798;2023-12-20T08:53:36;101980.91;;;3.77;100.00
66703;BME280;60933;46.398;-63.798;2023-12-20T08:56:04;101986.06;;;3.80;100.00
66703;BME280;60933;46.398;-63.798;2023-12-20T08:58:32;101991.16;;;3.79;100.00
66703;BME280;60933;46.398;-63.798;2023-12-20T09:01:03;101989.13;;;3.66;100.00
66703;BME280;60933;46.398;-63.798;2023-12-20T09:03:31;102026.78;;;3.74;100.00
66703;BME280;60933;46.398;-63.798;2023-12-20T09:06:00;102029.31;;;3.73;100.00
66703;BME280;60933;46.398;-63.798;2023-12-20T09:08:28;102028.53;;;3.75;100.00
66703;BME280;60933;46.398;-63.798;2023-12-20T09:10:56;102035.28;;;3.73;100.00
66703;BME280;60933;46.398;-63.798;2023-12-20T09:13:25;102027.59;;;3.72;100.00
66703;BME280;60933;46.398;-63.798;2023-12-20T09:15:56;102011.34;;;3.70;100.00
66703;BME280;60933;46.398;-63.798;2023-12-20T09:18:24;102012.19;;;3.69;100.00
66703;BME280;60933;46.398;-63.798;2023-12-20T09:20:54;102026.63;;;3.67;100.00
66703;BME280;60933;46.398;-63.798;2023-12-20T09:23:22;102024.84;;;3.64;100.00
66703;BME280;60933;46.398;-63.798;2023-12-20T09:25:51;102019.72;;;3.64;100.00
66703;BME280;60933;46.398;-63.798;2023-12-20T09:28:23;102022.91;;;3.54;100.00
66703;BME280;60933;46.398;-63.798;2023-12-20T09:30:51;102038.38;;;3.60;100.00
66703;BME280;60933;46.398;-63.798;2023-12-20T09:33:19;102032.41;;;3.59;100.00
66703;BME280;60933;46.398;-63.798;2023-12-20T09:35:48;102046.00;;;3.58;100.00
66703;BME280;60933;46.398;-63.798;2023-12-20T09:38:16;102046.00;;;3.58;100.00
66703;BME280;60933;46.398;-63.798;2023-12-20T09:40:45;102051.09;;;3.58;100.00
66703;BME280;60933;46.398;-63.798;2023-12-20T09:43:30;102051.00;;;3.55;100.00
66703;BME280;60933;46.398;-63.798;2023-12-20T09:46:05;102074.00;;;3.55;100.00
66703;BME280;60933;46.398;-63.798;2023-12-20T09:48:36;102068.84;;;3.54;100.00
66703;BME280;60933;46.398;-63.798;2023-12-20T09:51:05;102065.34;;;3.50;100.00
66703;BME280;60933;46.398;-63.798;2023-12-20T09:53:35;102084.97;;;3.51;100.00
66703;BME280;60933;46.398;-63.798;2023-12-20T09:56:06;102081.50;;;3.49;100.00
66703;BME280;60933;46.398;-63.798;2023-12-20T09:58:37;102072.88;;;3.44;100.00
66703;BME280;60933;46.398;-63.798;2023-12-20T10:01:09;102069.53;;;3.46;100.00
66703;BME280;60933;46.398;-63.798;2023-12-20T10:03:39;102053.28;;;3.44;100.00
66703;BME280;60933;46.398;-63.798;2023-12-20T10:06:09;102050.72;;;3.43;100.00
66703;BME280;60933;46.398;-63.798;2023-12-20T10:08:38;102049.78;;;3.41;100.00
66703;BME280;60933;46.398;-63.798;2023-12-20T10:11:07;102034.38;;;3.38;100.00
66703;BME280;60933;46.398;-63.798;2023-12-20T10:13:42;102049.66;;;3.35;100.00
66703;BME280;60933;46.398;-63.798;2023-12-20T10:16:10;102049.63;;;3.33;100.00
66703;BME280;60933;46.398;-63.798;2023-12-20T10:18:39;102033.28;;;3.28;100.00
66703;BME280;60933;46.398;-63.798;2023-12-20T10:21:07;102078.25;;;3.23;100.00
66703;BME280;60933;46.398;-63.798;2023-12-20T10:23:37;102087.50;;;3.19;100.00
66703;BME280;60933;46.398;-63.798;2023-12-20T10:26:07;102078.81;;;3.12;100.00
66703;BME280;60933;46.398;-63.798;2023-12-20T10:28:35;102070.31;;;3.12;100.00
66703;BME280;60933;46.398;-63.798;2023-12-20T10:31:05;102065.06;;;3.07;100.00
66703;BME280;60933;46.398;-63.798;2023-12-20T10:33:33;102050.59;;;3.06;100.00
66703;BME280;60933;46.398;-63.798;2023-12-20T10:36:02;102044.53;;;3.03;100.00
66703;BME280;60933;46.398;-63.798;2023-12-20T10:38:30;102023.16;;;2.97;100.00
66703;BME280;60933;46.398;-63.798;2023-12-20T10:40:59;102062.94;;;2.92;100.00
66703;BME280;60933;46.398;-63.798;2023-12-20T10:43:30;102066.31;;;2.91;100.00
66703;BME280;60933;46.398;-63.798;2023-12-20T10:46:00;102066.97;;;2.84;100.00
66703;BME280;60933;46.398;-63.798;2023-12-20T10:48:30;102059.28;;;2.82;100.00
66703;BME280;60933;46.398;-63.798;2023-12-20T10:51:01;102057.53;;;2.80;100.00
66703;BME280;60933;46.398;-63.798;2023-12-20T10:53:30;102042.97;;;2.76;100.00
66703;BME280;60933;46.398;-63.798;2023-12-20T10:56:00;102042.06;;;2.74;100.00
66703;BME280;60933;46.398;-63.798;2023-12-20T10:58:32;102035.91;;;2.67;100.00
66703;BME280;60933;46.398;-63.798;2023-12-20T11:01:01;102042.59;;;2.63;100.00
66703;BME280;60933;46.398;-63.798;2023-12-20T11:03:35;102039.09;;;2.60;100.00
66703;BME280;60933;46.398;-63.798;2023-12-20T11:11:29;102103.59;;;2.57;100.00
66703;BME280;60933;46.398;-63.798;2023-12-20T11:14:06;102128.97;;;2.52;100.00
66703;BME280;60933;46.398;-63.798;2023-12-20T11:16:37;102138.19;;;2.49;100.00
66703;BME280;60933;46.398;-63.798;2023-12-20T11:19:18;102122.94;;;2.50;100.00
66703;BME280;60933;46.398;-63.798;2023-12-20T11:21:46;102122.09;;;2.50;100.00
66703;BME280;60933;46.398;-63.798;2023-12-20T11:24:16;102146.75;;;2.51;100.00
66703;BME280;60933;46.398;-63.798;2023-12-20T11:26:47;102132.25;;;2.48;100.00
66703;BME280;60933;46.398;-63.798;2023-12-20T11:29:35;102118.63;;;2.48;100.00
66703;BME280;60933;46.398;-63.798;2023-12-20T11:37:38;102123.53;;;2.42;100.00
66703;BME280;60933;46.398;-63.798;2023-12-20T11:40:13;102147.28;;;2.41;100.00
66703;BME280;60933;46.398;-63.798;2023-12-20T11:42:48;102143.00;;;2.40;100.00
66703;BME280;60933;46.398;-63.798;2023-12-20T11:45:21;102150.44;;;2.33;100.00
66703;BME280;60933;46.398;-63.798;2023-12-20T11:47:56;102152.97;;;2.32;100.00
66703;BME280;60933;46.398;-63.798;2023-12-20T11:50:25;102164.78;;;2.30;100.00
66703;BME280;60933;46.398;-63.798;2023-12-20T11:52:54;102172.31;;;2.27;100.00
66703;BME280;60933;46.398;-63.798;2023-12-20T11:55:23;102177.38;;;2.25;100.00
66703;BME280;60933;46.398;-63.798;2023-12-20T11:57:52;102178.19;;;2.24;100.00
66703;BME280;60933;46.398;-63.798;2023-12-20T12:00:21;102159.44;;;2.22;100.00
66703;BME280;60933;46.398;-63.798;2023-12-20T12:02:59;102157.72;;;2.21;100.00
66703;BME280;60933;46.398;-63.798;2023-12-20T12:05:30;102156.81;;;2.20;100.00
66703;BME280;60933;46.398;-63.798;2023-12-20T12:08:00;102151.66;;;2.17;100.00
66703;BME280;60933;46.398;-63.798;2023-12-20T12:10:29;102155.88;;;2.17;100.00
66703;BME280;60933;46.398;-63.798;2023-12-20T12:12:57;102169.41;;;2.16;100.00
66703;BME280;60933;46.398;-63.798;2023-12-20T12:15:26;102181.31;;;2.15;100.00
66703;BME280;60933;46.398;-63.798;2023-12-20T12:17:55;102166.78;;;2.13;100.00
66703;BME280;60933;46.398;-63.798;2023-12-20T12:20:23;102158.19;;;2.09;100.00
66703;BME280;60933;46.398;-63.798;2023-12-20T12:22:59;102164.03;;;2.07;100.00
66703;BME280;60933;46.398;-63.798;2023-12-20T12:25:29;102182.56;;;2.02;100.00
66703;BME280;60933;46.398;-63.798;2023-12-20T12:27:59;102205.38;;;1.99;100.00
66703;BME280;60933;46.398;-63.798;2023-12-20T12:30:27;102193.53;;;2.00;100.00
66703;BME280;60933;46.398;-63.798;2023-12-20T12:33:05;102197.66;;;1.96;100.00
66703;BME280;60933;46.398;-63.798;2023-12-20T12:35:34;102213.00;;;1.99;100.00
66703;BME280;60933;46.398;-63.798;2023-12-20T12:38:02;102218.88;;;1.97;100.00
66703;BME280;60933;46.398;-63.798;2023-12-20T12:40:34;102249.69;;;2.03;100.00
66703;BME280;60933;46.398;-63.798;2023-12-20T12:43:04;102248.78;;;2.02;100.00
66703;BME280;60933;46.398;-63.798;2023-12-20T12:45:33;102258.97;;;2.02;100.00
66703;BME280;60933;46.398;-63.798;2023-12-20T12:48:01;102261.56;;;2.04;100.00
66703;BME280;60933;46.398;-63.798;2023-12-20T12:50:31;102253.13;;;2.05;100.00